Time;durP1;ratioP1;P1;durP2;ratioP2;P2;SDS_P1;SDS_P2;PMS_P1;PMS_P2;Temp;Humidity;BMP_temperature;BMP_pressure;BME280_temperature;BME280_humidity;BME280_pressure;Samples;Min_cycle;Max_cycle;Signal;HPM_P1;HPM_P2
2021/01/25 00:02:05;;;;;;;14.70;8.67;;;;;;;-144.99;100.00;52511.28;5052389;28;21023;-75
2021/01/25 00:04:31;;;;;;;7.80;7.00;;;;;;;-144.99;100.00;52578.53;5049842;28;20714;-75
2021/01/25 00:06:57;;;;;;;9.53;8.10;;;;;;;-144.99;100.00;52515.34;5051533;28;20747;-76
2021/01/25 00:09:23;;;;;;;8.50;7.13;;;;;;;-144.99;100.00;52507.19;5050705;28;20634;-76
2021/01/25 00:11:49;;;;;;;10.83;6.83;;;;;;;-144.99;100.00;52525.56;5050939;28;20707;-75
2021/01/25 00:14:16;;;;;;;8.67;6.90;;;;;;;-144.99;100.00;52501.09;5049953;28;20652;-75
2021/01/25 00:16:42;;;;;;;8.13;6.77;;;;;;;-144.99;100.00;52501.09;5049551;28;20671;-76
2021/01/25 00:19:09;;;;;;;10.13;7.77;;;;;;;-144.99;100.00;52541.84;5041179;28;20624;-77
2021/01/25 00:21:35;;;;;;;8.07;7.27;;;;;;;-144.99;100.00;52505.16;5048348;28;20689;-75
2021/01/25 00:24:01;;;;;;;9.30;7.70;;;;;;;-144.99;100.00;52509.25;5042669;28;21218;-76
2021/01/25 00:26:27;;;;;;;8.37;6.80;;;;;;;-144.99;100.00;52541.84;5047275;28;20679;-76
2021/01/25 00:28:53;;;;;;;10.13;7.27;;;;;;;-144.99;100.00;52521.47;5048066;28;20667;-76
2021/01/25 00:31:19;;;;;;;8.53;7.20;;;;;;;-144.99;100.00;52501.09;5050354;28;20722;-76
2021/01/25 00:33:45;;;;;;;8.50;7.30;;;;;;;-144.99;100.00;52533.69;5045780;28;20652;-76
2021/01/25 00:36:12;;;;;;;8.13;6.43;;;;;;;-144.99;100.00;52517.41;5044108;28;20685;-76
2021/01/25 00:38:38;;;;;;;8.03;6.70;;;;;;;-144.99;100.00;52501.09;5046574;28;20712;-76
2021/01/25 00:41:05;;;;;;;7.40;6.03;;;;;;;-144.99;100.00;52525.56;5041595;28;20612;-77
2021/01/25 00:43:31;;;;;;;6.53;5.43;;;;;;;-144.99;100.00;52492.94;5040612;28;20631;-78
2021/01/25 00:45:57;;;;;;;6.83;6.13;;;;;;;-144.99;100.00;52492.94;5044836;28;20737;-77
2021/01/25 00:48:23;;;;;;;8.03;6.60;;;;;;;-144.99;100.00;52537.78;5051797;28;20640;-76
2021/01/25 00:50:49;;;;;;;8.30;5.37;;;;;;;-144.99;100.00;52492.94;5049810;28;20708;-76
2021/01/25 00:53:16;;;;;;;7.03;5.27;;;;;;;-144.99;100.00;52545.94;5055759;28;20857;-76
2021/01/25 00:55:43;;;;;;;10.50;5.83;;;;;;;-144.99;100.00;52545.94;5048523;28;20694;-77
2021/01/25 00:58:10;;;;;;;6.30;5.23;;;;;;;-144.99;100.00;52537.78;5054564;28;20676;-76
2021/01/25 01:00:36;;;;;;;5.27;4.43;;;;;;;-144.99;100.00;52531.66;5051349;28;20638;-74
2021/01/25 01:03:03;;;;;;;6.47;5.33;;;;;;;-144.99;100.00;52501.09;5044730;28;20730;-74
2021/01/25 01:05:29;;;;;;;4.77;4.20;;;;;;;-144.99;100.00;52517.41;5046910;28;20646;-75
2021/01/25 01:07:55;;;;;;;5.70;3.90;;;;;;;-144.99;100.00;52501.09;5043509;28;20625;-75
2021/01/25 01:10:22;;;;;;;6.17;5.00;;;;;;;-144.99;100.00;52541.84;5043519;28;20617;-75
2021/01/25 01:12:49;;;;;;;8.33;4.33;;;;;;;-144.99;100.00;52525.56;5045700;28;20620;-75
2021/01/25 01:15:15;;;;;;;6.63;4.70;;;;;;;-144.99;100.00;52517.41;5040862;28;20742;-75
2021/01/25 01:17:42;;;;;;;5.40;4.00;;;;;;;-144.99;100.00;52545.94;5049478;28;21270;-75
2021/01/25 01:20:10;;;;;;;6.80;5.50;;;;;;;-144.99;100.00;52541.84;5043852;28;20769;-75
2021/01/25 01:22:36;;;;;;;8.20;5.00;;;;;;;-144.99;100.00;52517.41;5049721;28;20631;-75
2021/01/25 01:25:03;;;;;;;5.20;3.93;;;;;;;-144.99;100.00;52521.47;5048453;28;20714;-76
2021/01/25 01:27:30;;;;;;;5.47;3.80;;;;;;;-144.99;100.00;52507.19;5048908;28;20639;-75
2021/01/25 01:29:56;;;;;;;5.70;4.33;;;;;;;-144.99;100.00;52545.94;5048636;28;20652;-75
2021/01/25 01:32:22;;;;;;;4.60;3.50;;;;;;;-144.99;100.00;52517.41;5049956;28;20714;-75
2021/01/25 01:34:48;;;;;;;6.83;5.53;;;;;;;-144.99;100.00;52509.25;5044926;28;20631;-75
2021/01/25 01:37:14;;;;;;;9.37;4.73;;;;;;;-144.99;100.00;52527.59;5049381;28;20706;-76
2021/01/25 01:39:40;;;;;;;5.53;4.23;;;;;;;-144.99;100.00;52509.25;5048139;28;20662;-76
2021/01/25 01:42:07;;;;;;;7.87;4.27;;;;;;;-144.99;100.00;52497.00;5041169;28;20777;-77
2021/01/25 01:44:34;;;;;;;6.83;4.00;;;;;;;-144.99;100.00;52521.47;5049013;28;20722;-75
2021/01/25 01:47:00;;;;;;;6.10;4.40;;;;;;;-144.99;100.00;52533.69;5046784;28;20651;-75
2021/01/25 01:49:26;;;;;;;11.77;5.23;;;;;;;-144.99;100.00;52492.94;5046060;28;20616;-75
2021/01/25 01:51:52;;;;;;;6.90;5.50;;;;;;;-144.99;100.00;52537.78;5045723;28;20709;-75
2021/01/25 01:54:20;;;;;;;5.63;5.03;;;;;;;-144.99;100.00;52513.31;5045606;28;20624;-76
2021/01/25 01:56:46;;;;;;;9.47;4.83;;;;;;;-144.99;100.00;52509.25;5047260;28;20691;-75
2021/01/25 01:59:12;;;;;;;5.27;4.13;;;;;;;-144.99;100.00;52568.34;5049239;28;20714;-76
2021/01/25 02:01:39;;;;;;;5.93;4.60;;;;;;;-144.99;100.00;52517.41;5045900;28;20646;-75
2021/01/25 02:04:05;;;;;;;7.20;4.17;;;;;;;-144.99;100.00;52517.41;5042709;28;20624;-75
2021/01/25 02:06:34;;;;;;;5.67;4.33;;;;;;;-144.99;100.00;52509.25;5043035;28;21171;-75
2021/01/25 02:09:03;;;;;;;4.60;4.00;;;;;;;-144.99;100.00;52501.09;5048908;28;20719;-74
2021/01/25 02:11:30;;;;;;;4.83;3.80;;;;;;;-144.99;100.00;52529.63;5045234;28;20626;-75
2021/01/25 02:13:57;;;;;;;8.03;4.97;;;;;;;-144.99;100.00;52523.50;5042740;28;20635;-76
2021/01/25 02:16:23;;;;;;;7.33;5.27;;;;;;;-144.99;100.00;52480.72;5043457;28;20734;-75
2021/01/25 02:18:50;;;;;;;5.63;4.40;;;;;;;-144.99;100.00;52525.56;5045638;28;21219;-73
2021/01/25 02:21:17;;;;;;;5.47;4.23;;;;;;;-144.99;100.00;52529.63;5045205;28;20727;-76
2021/01/25 02:24:20;;;;;;;5.50;4.67;;;;;;;-144.99;100.00;52562.25;5049219;28;20627;-74
2021/01/25 02:27:08;;;;;;;5.27;3.87;;;;;;;-144.99;100.00;52488.84;5036701;28;20651;-75
2021/01/25 02:29:35;;;;;;;5.47;4.37;;;;;;;-144.99;100.00;52509.25;5047509;28;20623;-76
2021/01/25 02:32:02;;;;;;;6.70;4.10;;;;;;;-144.99;100.00;52525.56;5048128;28;20711;-75
2021/01/25 02:34:30;;;;;;;8.50;4.90;;;;;;;-144.99;100.00;52529.63;5044373;28;20985;-76
2021/01/25 02:36:58;;;;;;;6.70;3.80;;;;;;;-144.99;100.00;52537.78;5048858;28;20714;-75
2021/01/25 02:39:26;;;;;;;4.50;3.43;;;;;;;-144.99;100.00;52554.09;5045590;28;20692;-75
2021/01/25 02:41:53;;;;;;;4.33;3.93;;;;;;;-144.99;100.00;52550.00;5044250;28;20619;-76
2021/01/25 02:44:20;;;;;;;5.33;4.30;;;;;;;-144.99;100.00;52550.00;5047594;28;20643;-75
2021/01/25 02:46:47;;;;;;;6.47;3.73;;;;;;;-144.99;100.00;52529.63;5049276;28;20643;-75
2021/01/25 02:49:13;;;;;;;4.80;3.73;;;;;;;-144.99;100.00;52533.69;5048972;28;20722;-75
2021/01/25 02:51:39;;;;;;;7.33;5.23;;;;;;;-144.99;100.00;52513.31;5049915;28;20922;-75
2021/01/25 02:54:05;;;;;;;4.47;2.93;;;;;;;-144.99;100.00;52550.00;5035167;28;20624;-74
2021/01/25 02:56:32;;;;;;;4.43;3.47;;;;;;;-144.99;100.00;52507.19;5049955;28;20752;-74
2021/01/25 02:58:59;;;;;;;5.50;4.33;;;;;;;-144.99;100.00;52525.56;5059702;28;20634;-76
2021/01/25 03:01:26;;;;;;;4.23;3.40;;;;;;;-144.99;100.00;52521.47;5049703;28;20715;-75
2021/01/25 03:03:55;;;;;;;4.37;3.23;;;;;;;-144.99;100.00;52497.00;5043974;28;21087;-74
2021/01/25 03:06:22;;;;;;;3.90;3.50;;;;;;;-144.99;100.00;52562.25;5051555;28;20678;-76
2021/01/25 03:08:48;;;;;;;8.13;4.30;;;;;;;-144.99;100.00;52525.56;5051910;28;20712;-75
2021/01/25 03:11:18;;;;;;;5.03;3.90;;;;;;;-144.99;100.00;52501.09;5052815;28;20655;-74
2021/01/25 03:13:44;;;;;;;6.00;4.33;;;;;;;-144.99;100.00;52533.69;5052618;28;20726;-76
2021/01/25 03:16:13;;;;;;;4.80;3.80;;;;;;;-144.99;100.00;52517.41;5051642;28;20709;-75
2021/01/25 03:18:40;;;;;;;4.43;3.67;;;;;;;-144.99;100.00;52523.50;5056243;28;20905;-74
2021/01/25 03:21:07;;;;;;;5.50;4.53;;;;;;;-144.99;100.00;52533.69;5056551;28;20643;-75
2021/01/25 03:23:33;;;;;;;5.60;4.57;;;;;;;-144.99;100.00;52509.25;5053541;28;20662;-75
2021/01/25 03:25:59;;;;;;;9.00;5.13;;;;;;;-144.99;100.00;52550.00;5049423;28;20679;-74
2021/01/25 03:28:25;;;;;;;5.10;4.60;;;;;;;-144.99;100.00;52531.66;5051271;28;20634;-74
2021/01/25 03:30:51;;;;;;;9.30;6.27;;;;;;;-144.99;100.00;52529.63;5050889;28;20730;-75
2021/01/25 03:33:17;;;;;;;6.80;4.20;;;;;;;-144.99;100.00;52494.97;5048434;28;20667;-74
2021/01/25 03:35:47;;;;;;;5.63;4.43;;;;;;;-144.99;100.00;52519.44;5051450;28;20747;-74
2021/01/25 03:38:14;;;;;;;5.63;4.63;;;;;;;-144.99;100.00;52545.94;5046528;28;20738;-73
2021/01/25 03:40:40;;;;;;;8.17;5.10;;;;;;;-144.99;100.00;52541.84;5042144;28;20645;-73
2021/01/25 03:43:06;;;;;;;6.07;5.40;;;;;;;-144.99;100.00;52554.09;5050857;28;20726;-72
2021/01/25 03:45:32;;;;;;;6.27;5.40;;;;;;;-144.99;100.00;52505.16;5049496;28;20643;-72
2021/01/25 03:47:58;;;;;;;7.03;5.00;;;;;;;-144.99;100.00;52545.94;5049593;28;20671;-72
2021/01/25 03:50:24;;;;;;;6.33;5.37;;;;;;;-144.99;100.00;52513.31;5045073;28;20623;-72
2021/01/25 03:52:50;;;;;;;6.17;4.87;;;;;;;-144.99;100.00;52527.59;5046958;28;20716;-73
2021/01/25 03:55:17;;;;;;;6.37;5.63;;;;;;;-144.99;100.00;52501.09;5046080;28;20675;-73
2021/01/25 03:57:43;;;;;;;8.40;5.57;;;;;;;-144.99;100.00;52562.25;5046523;28;20722;-73
2021/01/25 04:00:10;;;;;;;7.23;5.33;;;;;;;-144.99;100.00;52505.16;5048527;28;20766;-73
2021/01/25 04:02:36;;;;;;;7.37;5.67;;;;;;;-144.99;100.00;52509.25;5045096;28;21219;-73
2021/01/25 04:05:03;;;;;;;8.03;5.93;;;;;;;-144.99;100.00;52533.69;5046803;28;20738;-73
2021/01/25 04:07:29;;;;;;;8.53;6.13;;;;;;;-144.99;100.00;52545.94;5046559;28;21255;-73
2021/01/25 04:09:55;;;;;;;8.90;6.27;;;;;;;-144.99;100.00;52494.97;5049731;28;20714;-73
2021/01/25 04:12:24;;;;;;;10.97;7.30;;;;;;;-144.99;100.00;52539.81;5043903;28;20754;-73
2021/01/25 04:14:51;;;;;;;16.63;9.07;;;;;;;-144.99;100.00;52505.16;5040013;28;20628;-74
2021/01/25 04:17:17;;;;;;;10.60;8.03;;;;;;;-144.99;100.00;52550.00;5049074;28;20704;-73
2021/01/25 04:19:43;;;;;;;12.80;9.83;;;;;;;-144.99;100.00;52517.41;5045069;28;21201;-74
2021/01/25 04:22:09;;;;;;;12.40;9.83;;;;;;;-144.99;100.00;52472.56;5049987;28;20659;-73
2021/01/25 04:24:35;;;;;;;10.47;6.87;;;;;;;-144.99;100.00;52531.66;5049047;28;20631;-74
2021/01/25 04:27:01;;;;;;;11.37;8.47;;;;;;;-144.99;100.00;52523.50;5043455;28;20648;-73
2021/01/25 04:29:28;;;;;;;15.80;9.07;;;;;;;-144.99;100.00;52529.63;5049624;28;20987;-75
2021/01/25 04:31:54;;;;;;;11.90;9.63;;;;;;;-144.99;100.00;52505.16;5050641;28;21274;-73
2021/01/25 04:34:20;;;;;;;14.90;9.63;;;;;;;-144.99;100.00;52513.31;5046598;28;20896;-73
2021/01/25 04:36:47;;;;;;;16.13;10.30;;;;;;;-144.99;100.00;52492.94;5049203;28;20777;-73
2021/01/25 04:39:13;;;;;;;11.10;8.67;;;;;;;-144.99;100.00;52497.00;5049575;28;20651;-72
2021/01/25 04:41:40;;;;;;;10.77;9.40;;;;;;;-144.99;100.00;52501.09;5042636;28;20654;-73
2021/01/25 04:44:06;;;;;;;10.77;8.83;;;;;;;-144.99;100.00;52550.00;5051551;28;20705;-73
2021/01/25 04:46:34;;;;;;;13.07;9.83;;;;;;;-144.99;100.00;52533.69;5049923;28;20694;-73
2021/01/25 04:49:01;;;;;;;14.67;9.23;;;;;;;-144.99;100.00;52558.16;5047344;28;20631;-73
2021/01/25 04:51:28;;;;;;;13.97;8.90;;;;;;;-144.99;100.00;52505.16;5044623;28;20712;-73
2021/01/25 04:53:54;;;;;;;11.83;9.00;;;;;;;-144.99;100.00;52509.25;5044801;28;20728;-73
2021/01/25 04:56:22;;;;;;;10.40;8.80;;;;;;;-144.99;100.00;52525.56;5048207;28;20655;-73
2021/01/25 04:58:48;;;;;;;13.60;9.10;;;;;;;-144.99;100.00;52513.31;5048966;28;20666;-72
2021/01/25 05:01:14;;;;;;;10.50;8.50;;;;;;;-144.99;100.00;52566.31;5040654;28;21281;-72
2021/01/25 05:03:41;;;;;;;9.57;7.87;;;;;;;-144.99;100.00;52517.41;5044100;28;20723;-74
2021/01/25 05:06:07;;;;;;;10.23;8.07;;;;;;;-144.99;100.00;52525.56;5048199;28;20747;-73
2021/01/25 05:08:33;;;;;;;18.83;9.47;;;;;;;-144.99;100.00;52470.50;5045322;28;20646;-73
2021/01/25 05:11:11;;;;;;;10.10;8.07;;;;;;;-144.99;100.00;52517.41;5044947;28;20715;-73
2021/01/25 05:13:38;;;;;;;12.50;8.73;;;;;;;-144.99;100.00;52511.28;5045202;28;20656;-74
2021/01/25 05:16:14;;;;;;;11.43;9.00;;;;;;;-144.99;100.00;52478.66;5042194;28;20662;-74
2021/01/25 05:18:42;;;;;;;9.67;7.90;;;;;;;-144.99;100.00;52507.19;5043693;28;20675;-74
2021/01/25 05:21:08;;;;;;;14.43;9.90;;;;;;;-144.99;100.00;52527.59;5045522;28;20715;-74
2021/01/25 05:23:37;;;;;;;11.80;8.60;;;;;;;-144.99;100.00;52521.47;5049744;28;21060;-75
2021/01/25 05:26:05;;;;;;;11.50;9.43;;;;;;;-144.99;100.00;52537.78;5047822;28;20651;-75
2021/01/25 05:28:39;;;;;;;10.93;7.87;;;;;;;-144.99;100.00;52525.56;5049466;28;21277;-75
2021/01/25 05:31:15;;;;;;;13.07;8.00;;;;;;;-144.99;100.00;52525.56;5047975;28;20914;-73
2021/01/25 05:33:42;;;;;;;9.63;7.57;;;;;;;-144.99;100.00;52517.41;5044095;28;20608;-74
2021/01/25 05:36:09;;;;;;;12.87;8.83;;;;;;;-144.99;100.00;52513.31;5047893;28;20738;-74
2021/01/25 05:38:35;;;;;;;13.80;9.70;;;;;;;-144.99;100.00;52545.94;5048027;28;20683;-74
2021/01/25 05:41:04;;;;;;;11.83;9.00;;;;;;;-144.99;100.00;52529.63;5039293;28;21182;-73
2021/01/25 05:43:32;;;;;;;9.57;7.83;;;;;;;-144.99;100.00;52488.84;5048590;28;20631;-73
2021/01/25 05:46:06;;;;;;;10.90;8.97;;;;;;;-144.99;100.00;52476.63;5047510;28;20987;-77
2021/01/25 05:48:32;;;;;;;10.77;7.80;;;;;;;-144.99;100.00;52550.00;5046117;28;20627;-75
2021/01/25 05:51:11;;;;;;;10.20;7.57;;;;;;;-144.99;100.00;52488.84;5040687;28;20635;-74
2021/01/25 05:53:38;;;;;;;13.03;9.40;;;;;;;-144.99;100.00;52529.63;5047710;28;21201;-76
2021/01/25 05:56:06;;;;;;;13.00;8.20;;;;;;;-144.99;100.00;52507.19;5044694;28;21181;-74
2021/01/25 05:58:33;;;;;;;10.70;8.10;;;;;;;-144.99;100.00;52525.56;5042127;28;20758;-74
2021/01/25 06:01:00;;;;;;;10.07;8.03;;;;;;;-144.99;100.00;52570.38;5047062;28;20711;-74
2021/01/25 06:03:27;;;;;;;11.87;8.27;;;;;;;-144.99;100.00;52509.25;5042799;28;20647;-73
2021/01/25 06:05:54;;;;;;;9.47;7.77;;;;;;;-144.99;100.00;52554.09;5046644;28;20765;-75
2021/01/25 06:08:25;;;;;;;10.70;8.20;;;;;;;-144.99;100.00;52513.31;5048722;28;20623;-75
2021/01/25 06:11:02;;;;;;;10.77;8.17;;;;;;;-144.99;100.00;52517.41;5035942;28;21117;-75
2021/01/25 06:13:31;;;;;;;13.50;10.37;;;;;;;-144.99;100.00;52547.97;5043028;28;20611;-74
2021/01/25 06:15:59;;;;;;;17.27;10.93;;;;;;;-144.99;100.00;52550.00;5040873;28;20698;-75
2021/01/25 06:18:26;;;;;;;14.07;8.33;;;;;;;-144.99;100.00;52497.00;5046868;28;20663;-74
2021/01/25 06:20:55;;;;;;;10.80;9.00;;;;;;;-144.99;100.00;52507.19;5047083;28;20711;-76
2021/01/25 06:23:23;;;;;;;14.03;11.03;;;;;;;-144.99;100.00;52517.41;5053467;28;21193;-76
2021/01/25 06:25:50;;;;;;;15.50;10.63;;;;;;;-144.99;100.00;52501.09;5052050;28;20661;-76
2021/01/25 06:28:17;;;;;;;16.53;11.00;;;;;;;-144.99;100.00;52543.91;5039800;28;20693;-74
2021/01/25 06:30:44;;;;;;;19.40;13.00;;;;;;;-144.99;100.00;52507.19;5051778;28;20631;-74
2021/01/25 06:33:14;;;;;;;21.93;12.67;;;;;;;-144.99;100.00;52517.41;5052703;28;20616;-73
2021/01/25 06:35:40;;;;;;;20.27;12.77;;;;;;;-144.99;100.00;52554.09;5049299;28;20659;-73
2021/01/25 06:38:13;;;;;;;16.47;13.20;;;;;;;-144.99;100.00;52529.63;5054375;28;20652;-73
2021/01/25 06:40:43;;;;;;;30.87;14.43;;;;;;;-144.99;100.00;52497.00;5045506;28;20670;-75
2021/01/25 06:43:10;;;;;;;22.97;13.53;;;;;;;-144.99;100.00;52531.66;5047182;28;20615;-75
2021/01/25 06:45:38;;;;;;;29.50;14.57;;;;;;;-144.99;100.00;52521.47;5051213;28;20650;-74
2021/01/25 06:48:06;;;;;;;23.07;11.10;;;;;;;-144.99;100.00;52501.09;5050429;28;20910;-74
2021/01/25 06:50:32;;;;;;;24.17;10.73;;;;;;;-144.99;100.00;52531.66;5051028;28;20630;-75
2021/01/25 06:52:59;;;;;;;37.97;14.37;;;;;;;-144.99;100.00;52505.16;5051190;28;20644;-75
2021/01/25 06:55:31;;;;;;;20.10;11.63;;;;;;;-144.99;100.00;52539.81;5047789;28;20647;-75
2021/01/25 06:58:04;;;;;;;21.23;12.00;;;;;;;-144.99;100.00;52509.25;5051213;28;20651;-75
2021/01/25 07:00:32;;;;;;;17.17;11.57;;;;;;;-144.99;100.00;52562.25;5048838;28;20651;-74
2021/01/25 07:03:00;;;;;;;23.03;12.97;;;;;;;-144.99;100.00;52521.47;5052213;28;20619;-74
2021/01/25 07:05:27;;;;;;;30.77;13.70;;;;;;;-144.99;100.00;52550.00;5049628;28;20789;-74
2021/01/25 07:08:22;;;;;;;23.87;9.77;;;;;;;-144.99;100.00;52472.56;5048240;28;21235;-74
2021/01/25 07:10:50;;;;;;;26.63;10.40;;;;;;;-144.99;100.00;52521.47;5048661;28;20613;-74
2021/01/25 07:13:17;;;;;;;15.07;8.97;;;;;;;-144.99;100.00;52539.81;5048100;28;20654;-73
2021/01/25 07:15:44;;;;;;;14.80;11.57;;;;;;;-144.99;100.00;52499.06;5043542;28;20704;-73
2021/01/25 07:18:12;;;;;;;25.83;13.23;;;;;;;-144.99;100.00;52529.63;5050377;28;20655;-74
2021/01/25 07:20:38;;;;;;;24.63;12.13;;;;;;;-144.99;100.00;52509.25;5049270;28;21235;-73
2021/01/25 07:23:07;;;;;;;22.97;11.17;;;;;;;-144.99;100.00;52521.47;5052558;28;20634;-73
2021/01/25 07:25:33;;;;;;;16.70;11.07;;;;;;;-144.99;100.00;52505.16;5042988;28;20951;-73
2021/01/25 07:28:03;;;;;;;17.73;12.20;;;;;;;-144.99;100.00;52531.66;5052282;28;20981;-75
2021/01/25 07:30:32;;;;;;;16.23;11.10;;;;;;;-144.99;100.00;52507.19;5052216;28;20625;-74
2021/01/25 07:33:02;;;;;;;18.03;13.10;;;;;;;-144.99;100.00;52521.47;5049423;28;20728;-74
2021/01/25 07:35:28;;;;;;;14.67;11.83;;;;;;;-144.99;100.00;52490.91;5050926;28;20674;-75
2021/01/25 07:37:54;;;;;;;20.80;10.17;;;;;;;-144.99;100.00;52513.31;5041959;28;20639;-75
2021/01/25 07:40:22;;;;;;;19.83;10.57;;;;;;;-144.99;100.00;52519.44;5051991;28;20674;-74
2021/01/25 07:42:49;;;;;;;17.07;11.27;;;;;;;-144.99;100.00;52513.31;5046037;28;20715;-75
2021/01/25 07:45:15;;;;;;;17.47;10.53;;;;;;;-144.99;100.00;52513.31;5051684;28;20690;-75
2021/01/25 07:47:45;;;;;;;13.83;8.83;;;;;;;-144.99;100.00;52497.00;5049391;28;20819;-74
2021/01/25 07:50:12;;;;;;;19.00;9.40;;;;;;;-144.99;100.00;52517.41;5050246;28;20691;-74
2021/01/25 07:52:39;;;;;;;27.90;10.40;;;;;;;-144.99;100.00;52537.78;5049033;28;20701;-74
2021/01/25 07:55:13;;;;;;;15.00;10.47;;;;;;;-144.99;100.00;52533.69;5046947;28;21189;-72
2021/01/25 07:57:39;;;;;;;17.50;12.57;;;;;;;-144.99;100.00;52521.47;5048790;28;20784;-72
2021/01/25 08:00:17;;;;;;;24.33;11.13;;;;;;;-144.99;100.00;52509.25;5047296;28;20629;-73
2021/01/25 08:02:48;;;;;;;18.93;12.93;;;;;;;-144.99;100.00;52517.41;5049496;28;20627;-75
2021/01/25 08:05:15;;;;;;;16.43;11.27;;;;;;;-144.99;100.00;52590.78;5047557;28;21240;-74
2021/01/25 08:07:43;;;;;;;15.30;11.83;;;;;;;-144.99;100.00;52494.97;5043109;28;20632;-74
2021/01/25 08:10:11;;;;;;;27.00;12.63;;;;;;;-144.99;100.00;52525.56;5049791;28;20670;-75
2021/01/25 08:12:38;;;;;;;24.47;10.20;;;;;;;-144.99;100.00;52497.00;5047714;28;21224;-74
2021/01/25 08:15:10;;;;;;;29.43;15.37;;;;;;;-144.99;100.00;52531.66;5044047;28;20941;-75
2021/01/25 08:17:41;;;;;;;14.53;10.07;;;;;;;-144.99;100.00;52501.09;5040673;28;20649;-74
2021/01/25 08:20:14;;;;;;;19.23;12.30;;;;;;;-144.99;100.00;52554.09;5045362;28;21213;-75
2021/01/25 08:22:43;;;;;;;24.43;14.97;;;;;;;-144.99;100.00;52545.94;5053322;28;20686;-74
2021/01/25 08:25:17;;;;;;;17.03;13.23;;;;;;;-144.99;100.00;52541.84;5054767;28;21031;-73
2021/01/25 08:27:52;;;;;;;14.53;11.37;;;;;;;-144.99;100.00;52533.69;5048329;28;20620;-76
2021/01/25 08:30:22;;;;;;;16.90;10.53;;;;;;;-144.99;100.00;52525.56;5044522;28;20690;-74
2021/01/25 08:32:52;;;;;;;21.63;14.10;;;;;;;-144.99;100.00;52501.09;5042114;28;20628;-72
2021/01/25 08:35:31;;;;;;;22.43;14.10;;;;;;;-144.99;100.00;52484.78;5042092;28;20671;-74
2021/01/25 08:38:22;;;;;;;22.73;15.57;;;;;;;-144.99;100.00;52488.84;5042860;28;20668;-74
2021/01/25 08:40:49;;;;;;;18.63;13.37;;;;;;;-144.99;100.00;52570.38;5046206;28;20617;-74
2021/01/25 08:43:22;;;;;;;16.67;12.53;;;;;;;-144.99;100.00;52517.41;5049836;28;20623;-74
2021/01/25 08:45:50;;;;;;;19.77;14.20;;;;;;;-144.99;100.00;52537.78;5050158;28;20701;-75
2021/01/25 08:48:25;;;;;;;16.93;12.70;;;;;;;-144.99;100.00;52513.31;5044997;28;20616;-74
2021/01/25 08:50:52;;;;;;;14.60;12.17;;;;;;;-144.99;100.00;52533.69;5041496;28;20699;-75
2021/01/25 08:53:30;;;;;;;14.03;11.13;;;;;;;-144.99;100.00;52568.34;5051080;28;21241;-74
2021/01/25 08:55:57;;;;;;;16.60;10.30;;;;;;;-144.99;100.00;52529.63;5045141;28;20725;-74
2021/01/25 08:58:29;;;;;;;15.37;12.80;;;;;;;-144.99;100.00;52545.94;5048660;28;20652;-74
2021/01/25 09:00:57;;;;;;;15.10;10.80;;;;;;;-144.99;100.00;52509.25;5044308;28;20992;-74
2021/01/25 09:03:24;;;;;;;18.20;11.97;;;;;;;-144.99;100.00;52525.56;5047269;28;20662;-73
2021/01/25 09:05:52;;;;;;;21.83;13.17;;;;;;;-144.99;100.00;52505.16;5038625;28;20648;-75
2021/01/25 09:08:18;;;;;;;17.80;13.27;;;;;;;-144.99;100.00;52541.84;5045018;28;20619;-74
2021/01/25 09:10:45;;;;;;;15.40;11.67;;;;;;;-144.99;100.00;52529.63;5044552;28;20634;-73
2021/01/25 09:13:11;;;;;;;17.20;13.83;;;;;;;-144.99;100.00;52484.78;5049661;28;20654;-72
2021/01/25 09:15:37;;;;;;;21.83;14.33;;;;;;;-144.99;100.00;52562.25;5049452;28;20651;-75
2021/01/25 09:18:07;;;;;;;20.17;14.93;;;;;;;-144.99;100.00;52550.00;5040466;28;20655;-74
2021/01/25 09:20:34;;;;;;;23.63;15.63;;;;;;;-144.99;100.00;52529.63;5040723;28;21012;-74
2021/01/25 09:23:00;;;;;;;21.50;14.60;;;;;;;-144.99;100.00;52484.78;5046298;28;20626;-75
2021/01/25 09:25:27;;;;;;;19.23;15.93;;;;;;;-144.99;100.00;52517.41;5042044;28;20977;-74
2021/01/25 09:27:54;;;;;;;20.80;14.20;;;;;;;-144.99;100.00;52492.94;5043422;28;20623;-75
2021/01/25 09:30:21;;;;;;;22.97;18.57;;;;;;;-144.99;100.00;52566.31;5041811;28;20734;-75
2021/01/25 09:32:47;;;;;;;25.73;16.07;;;;;;;-144.99;100.00;52541.84;5044884;28;20637;-73
2021/01/25 09:35:17;;;;;;;16.20;11.97;;;;;;;-144.99;100.00;52525.56;5048545;28;20642;-75
2021/01/25 09:37:43;;;;;;;16.47;12.00;;;;;;;-144.99;100.00;52505.16;5050440;28;20690;-75
2021/01/25 09:40:11;;;;;;;18.77;13.00;;;;;;;-144.99;100.00;52539.81;5042161;28;20624;-75
2021/01/25 09:42:38;;;;;;;18.87;14.57;;;;;;;-144.99;100.00;52525.56;5043911;28;20628;-74
2021/01/25 09:45:05;;;;;;;20.57;16.40;;;;;;;-144.99;100.00;52545.94;5045656;28;20681;-73
2021/01/25 09:47:32;;;;;;;18.97;14.57;;;;;;;-144.99;100.00;52509.25;5042895;28;20755;-73
2021/01/25 09:49:58;;;;;;;21.83;16.73;;;;;;;-144.99;100.00;52505.16;5043382;28;20674;-74
2021/01/25 09:52:25;;;;;;;16.97;12.03;;;;;;;-144.99;100.00;52513.31;5046161;28;20639;-73
2021/01/25 09:54:51;;;;;;;16.60;11.83;;;;;;;-144.99;100.00;52497.00;5047405;28;20657;-74
2021/01/25 09:57:17;;;;;;;14.47;11.23;;;;;;;-144.99;100.00;52509.25;5044183;28;21081;-73
2021/01/25 09:59:44;;;;;;;12.57;9.97;;;;;;;-144.99;100.00;52525.56;5043641;28;20727;-74
2021/01/25 10:02:10;;;;;;;17.60;13.87;;;;;;;-144.99;100.00;52521.47;5043935;28;20612;-74
2021/01/25 10:04:36;;;;;;;18.60;12.03;;;;;;;-144.99;100.00;52488.84;5045831;28;20639;-74
2021/01/25 10:07:02;;;;;;;20.03;14.33;;;;;;;-144.99;100.00;52517.41;5043937;28;20656;-74
2021/01/25 10:09:30;;;;;;;13.07;10.80;;;;;;;-144.99;100.00;52523.50;5042829;28;20620;-74
2021/01/25 10:11:56;;;;;;;15.70;12.20;;;;;;;-144.99;100.00;52537.78;5046880;28;20944;-75
2021/01/25 10:14:22;;;;;;;16.80;10.77;;;;;;;-144.99;100.00;52505.16;5046150;28;20681;-75
2021/01/25 10:16:49;;;;;;;13.93;9.83;;;;;;;-144.99;100.00;52519.44;5044832;28;20755;-75
2021/01/25 10:19:15;;;;;;;14.90;10.10;;;;;;;-144.99;100.00;52511.28;5040389;28;20640;-74
2021/01/25 10:21:41;;;;;;;12.30;9.13;;;;;;;-144.99;100.00;52484.78;5038536;28;20747;-75
2021/01/25 10:24:08;;;;;;;13.67;11.63;;;;;;;-144.99;100.00;52541.84;5046480;28;20632;-74
2021/01/25 10:26:35;;;;;;;16.57;11.33;;;;;;;-144.99;100.00;52497.00;5040594;28;20702;-75
2021/01/25 10:29:01;;;;;;;18.87;11.33;;;;;;;-144.99;100.00;52497.00;5044165;28;20624;-75
2021/01/25 10:31:27;;;;;;;20.10;11.70;;;;;;;-144.99;100.00;52499.06;5043160;28;20782;-74
2021/01/25 10:33:54;;;;;;;16.57;10.60;;;;;;;-144.99;100.00;52525.56;5037027;28;20625;-74
2021/01/25 10:36:20;;;;;;;15.37;10.70;;;;;;;-144.99;100.00;52460.31;5042491;28;20651;-75
2021/01/25 10:38:47;;;;;;;14.20;10.10;;;;;;;-144.99;100.00;52488.84;5047076;28;20754;-73
2021/01/25 10:41:14;;;;;;;17.53;9.87;;;;;;;-144.99;100.00;52513.31;5039291;28;20632;-75
2021/01/25 10:43:41;;;;;;;14.53;10.10;;;;;;;-144.99;100.00;52492.94;5040809;28;21320;-75
2021/01/25 10:46:07;;;;;;;14.80;9.70;;;;;;;-144.99;100.00;52494.97;5039250;28;20655;-75
2021/01/25 10:48:33;;;;;;;18.10;10.67;;;;;;;-144.99;100.00;52484.78;5046789;28;20607;-74
2021/01/25 10:50:59;;;;;;;10.47;9.33;;;;;;;-144.99;100.00;52525.56;5042283;28;20695;-75
2021/01/25 10:53:25;;;;;;;10.70;7.10;;;;;;;-144.99;100.00;52480.72;5052433;28;20615;-74
2021/01/25 10:55:51;;;;;;;9.97;7.43;;;;;;;-144.99;100.00;52545.94;5043626;28;20680;-76
2021/01/25 10:58:18;;;;;;;12.60;8.07;;;;;;;-144.99;100.00;52529.63;5044974;28;21537;-74
2021/01/25 11:00:45;;;;;;;10.40;9.13;;;;;;;-144.99;100.00;52509.25;5046406;28;20620;-74
2021/01/25 11:03:11;;;;;;;15.27;9.27;;;;;;;-144.99;100.00;52533.69;5038256;28;20629;-75
2021/01/25 11:05:37;;;;;;;11.30;8.73;;;;;;;-144.99;100.00;52505.16;5045965;28;20996;-74